createdAt,value
2023-04-23T00:02:01.360Z,16.33
2023-04-23T00:04:29.021Z,16.31
2023-04-23T00:06:55.927Z,16.29
2023-04-23T00:09:23.850Z,16.29
2023-04-23T00:11:50.564Z,16.27
2023-04-23T00:14:17.350Z,16.25
2023-04-23T00:16:44.263Z,16.25
2023-04-23T00:19:10.804Z,16.22
2023-04-23T00:21:37.708Z,16.19
2023-04-23T00:24:04.908Z,16.16
2023-04-23T00:26:31.359Z,16.14
2023-04-23T00:28:57.815Z,16.12
2023-04-23T00:31:27.145Z,16.10
2023-04-23T00:33:54.041Z,16.06
2023-04-23T00:36:20.520Z,16.02
2023-04-23T00:38:46.985Z,16.02
2023-04-23T00:41:14.895Z,15.99
2023-04-23T00:43:41.440Z,15.97
2023-04-23T00:46:07.975Z,15.94
2023-04-23T00:48:35.004Z,15.94
2023-04-23T00:51:06.342Z,15.93
2023-04-23T00:53:34.132Z,15.94
2023-04-23T00:56:04.559Z,15.97
2023-04-23T00:58:32.282Z,16.00
2023-04-23T01:00:59.231Z,16.03
2023-04-23T01:03:27.366Z,16.04
2023-04-23T01:05:56.677Z,16.04
2023-04-23T01:08:25.951Z,16.03
2023-04-23T01:10:53.762Z,16.03
2023-04-23T01:13:22.514Z,16.02
2023-04-23T01:15:49.636Z,16.02
2023-04-23T01:18:16.259Z,16.02
2023-04-23T01:20:43.713Z,15.99
2023-04-23T01:23:10.772Z,15.98
2023-04-23T01:25:37.899Z,15.96
2023-04-23T01:28:06.694Z,15.95
2023-04-23T01:30:33.473Z,15.93
2023-04-23T01:33:02.597Z,15.91
2023-04-23T01:35:30.086Z,15.89
2023-04-23T01:37:59.056Z,15.86
2023-04-23T01:40:25.585Z,15.85
2023-04-23T01:42:52.713Z,15.82
2023-04-23T01:45:19.842Z,15.81
2023-04-23T01:47:48.158Z,15.81
2023-04-23T01:50:14.899Z,15.80
2023-04-23T01:52:42.487Z,15.80
2023-04-23T01:55:09.646Z,15.80
2023-04-23T01:57:36.806Z,15.81
2023-04-23T02:00:12.242Z,15.80
2023-04-23T02:02:42.467Z,15.79
2023-04-23T02:05:12.452Z,15.82
2023-04-23T02:07:39.836Z,15.82
2023-04-23T02:10:07.963Z,15.83
2023-04-23T02:12:34.741Z,15.83
2023-04-23T02:15:01.729Z,15.83
2023-04-23T02:17:29.352Z,15.83
2023-04-23T02:19:56.499Z,15.82
2023-04-23T02:22:25.204Z,15.79
2023-04-23T02:24:55.237Z,15.77
2023-04-23T02:27:22.264Z,15.74
2023-04-23T02:29:49.960Z,15.73
2023-04-23T02:32:16.687Z,15.70
2023-04-23T02:34:43.422Z,15.66
2023-04-23T02:37:10.430Z,15.62
2023-04-23T02:39:39.179Z,15.57
2023-04-23T02:42:06.079Z,15.52
2023-04-23T02:44:33.118Z,15.43
2023-04-23T02:47:00.357Z,15.38
2023-04-23T02:49:27.065Z,15.32
2023-04-23T02:51:53.716Z,15.25
2023-04-23T02:54:20.299Z,15.23
2023-04-23T02:56:46.915Z,15.19
2023-04-23T02:59:13.618Z,15.16
2023-04-23T03:01:40.179Z,15.15
2023-04-23T03:04:09.162Z,15.13
2023-04-23T03:06:37.008Z,15.09
2023-04-23T03:09:04.054Z,15.06
2023-04-23T03:11:31.463Z,15.00
2023-04-23T03:13:58.349Z,14.97
2023-04-23T03:16:28.631Z,14.94
2023-04-23T03:18:55.789Z,14.91
2023-04-23T03:21:23.014Z,14.91
2023-04-23T03:23:50.153Z,14.89
2023-04-23T03:26:17.267Z,14.85
2023-04-23T03:28:43.771Z,14.77
2023-04-23T03:31:10.437Z,14.70
2023-04-23T03:33:37.017Z,14.60
2023-04-23T03:36:03.962Z,14.44
2023-04-23T03:38:32.387Z,14.28
2023-04-23T03:40:59.856Z,14.15
2023-04-23T03:43:26.913Z,14.02
2023-04-23T03:46:02.753Z,13.91
2023-04-23T03:48:32.391Z,13.86
2023-04-23T03:51:01.904Z,13.79
2023-04-23T03:53:42.416Z,13.71
2023-04-23T03:56:27.698Z,13.64
2023-04-23T03:59:07.307Z,13.55
2023-04-23T04:01:36.172Z,13.47
2023-04-23T04:04:03.516Z,13.38
2023-04-23T04:06:32.326Z,13.32
2023-04-23T04:08:58.744Z,13.31
2023-04-23T04:11:26.507Z,13.29
2023-04-23T04:13:53.101Z,13.24
2023-04-23T04:16:19.750Z,13.25
2023-04-23T04:18:46.331Z,13.21
2023-04-23T04:21:12.964Z,13.17
2023-04-23T04:23:39.953Z,13.09
2023-04-23T04:26:07.888Z,12.99
2023-04-23T04:28:36.338Z,12.90
2023-04-23T04:31:03.935Z,12.83
2023-04-23T04:33:30.682Z,12.79
2023-04-23T04:35:57.708Z,12.75
2023-04-23T04:38:24.260Z,12.73
2023-04-23T04:40:50.867Z,12.74
2023-04-23T04:43:17.788Z,12.72
2023-04-23T04:45:45.160Z,12.71
2023-04-23T04:48:12.028Z,12.69
2023-04-23T04:50:38.663Z,12.68
2023-04-23T04:53:05.288Z,12.69
2023-04-23T04:55:31.902Z,12.71
2023-04-23T04:57:58.719Z,12.71
2023-04-23T05:00:29.255Z,12.72
2023-04-23T05:02:57.457Z,12.73
2023-04-23T05:05:25.805Z,12.75
2023-04-23T05:07:54.321Z,12.75
2023-04-23T05:10:21.461Z,12.78
2023-04-23T05:12:48.014Z,12.81
2023-04-23T05:15:14.910Z,12.83
2023-04-23T05:17:42.085Z,12.86
2023-04-23T05:20:10.918Z,12.88
2023-04-23T05:22:41.797Z,12.89
2023-04-23T05:25:09.932Z,12.93
2023-04-23T05:27:36.437Z,12.95
2023-04-23T05:30:04.764Z,12.99
2023-04-23T05:32:31.765Z,13.01
2023-04-23T05:35:00.325Z,13.05
2023-04-23T05:37:27.226Z,13.10
2023-04-23T05:39:54.101Z,13.09
2023-04-23T05:42:20.716Z,13.07
2023-04-23T05:44:47.227Z,13.13
2023-04-23T05:47:14.636Z,13.14
2023-04-23T05:49:41.944Z,13.18
2023-04-23T05:52:09.177Z,13.16
2023-04-23T05:54:35.898Z,13.19
2023-04-23T05:57:03.190Z,13.19
2023-04-23T05:59:29.746Z,13.20
2023-04-23T06:01:56.422Z,13.18
2023-04-23T06:04:23.065Z,13.20
2023-04-23T06:06:49.644Z,13.21
2023-04-23T06:09:16.342Z,13.24
2023-04-23T06:11:42.848Z,13.23
2023-04-23T06:14:11.305Z,13.20
2023-04-23T06:16:37.878Z,13.18
2023-04-23T06:19:04.456Z,13.20
2023-04-23T06:21:32.439Z,13.17
2023-04-23T06:23:59.134Z,13.17
2023-04-23T06:26:25.600Z,13.16
2023-04-23T06:28:55.396Z,13.18
2023-04-23T06:31:28.429Z,13.15
2023-04-23T06:33:55.065Z,13.07
2023-04-23T06:36:21.642Z,13.00
2023-04-23T06:38:48.104Z,12.96
2023-04-23T06:41:15.394Z,12.83
2023-04-23T06:43:42.765Z,12.75
2023-04-23T06:46:30.638Z,12.64
2023-04-23T06:48:57.076Z,12.60
2023-04-23T06:51:26.883Z,12.58
2023-04-23T06:53:53.996Z,12.61
2023-04-23T06:56:21.463Z,12.59
2023-04-23T06:58:48.103Z,12.63
2023-04-23T07:01:20.613Z,12.69
2023-04-23T07:03:49.209Z,12.77
2023-04-23T07:06:16.317Z,12.89
2023-04-23T07:08:46.001Z,12.99
2023-04-23T07:11:12.649Z,13.03
2023-04-23T07:13:39.868Z,13.02
2023-04-23T07:16:06.704Z,13.00
2023-04-23T07:18:33.403Z,12.96
2023-04-23T07:21:00.039Z,13.01
2023-04-23T07:23:26.552Z,12.97
2023-04-23T07:25:53.008Z,12.98
2023-04-23T07:28:19.972Z,13.02
2023-04-23T07:30:46.838Z,13.08
2023-04-23T07:33:13.826Z,13.11
2023-04-23T07:35:40.437Z,13.13
2023-04-23T07:38:07.013Z,13.19
2023-04-23T07:40:33.931Z,13.26
2023-04-23T07:43:01.413Z,13.31
2023-04-23T07:45:28.066Z,13.32
2023-04-23T07:47:54.618Z,13.43
2023-04-23T07:50:21.422Z,13.57
2023-04-23T07:52:47.933Z,13.69
2023-04-23T07:55:14.576Z,13.76
2023-04-23T07:57:41.149Z,13.88
2023-04-23T08:00:11.366Z,14.01
2023-04-23T08:02:40.860Z,14.12
2023-04-23T08:05:08.335Z,14.23
2023-04-23T08:07:35.020Z,14.24
2023-04-23T08:10:06.300Z,14.28
2023-04-23T08:12:35.730Z,14.35
2023-04-23T08:15:02.684Z,14.44
2023-04-23T08:17:35.873Z,14.48
2023-04-23T08:20:04.042Z,14.60
2023-04-23T08:22:30.766Z,14.65
2023-04-23T08:24:57.428Z,14.57
2023-04-23T08:27:24.192Z,14.56
2023-04-23T08:29:51.803Z,14.55
2023-04-23T08:32:18.395Z,14.54
2023-04-23T08:34:45.274Z,14.53
2023-04-23T08:37:23.120Z,14.56
2023-04-23T08:39:54.053Z,14.62
2023-04-23T08:42:30.587Z,14.60
2023-04-23T08:44:57.745Z,14.64
2023-04-23T08:47:25.447Z,14.62
2023-04-23T08:49:56.649Z,14.61
2023-04-23T08:52:25.607Z,14.64
2023-04-23T08:55:00.197Z,14.65
2023-04-23T08:57:27.905Z,14.67
2023-04-23T08:59:55.430Z,14.71
2023-04-23T09:02:23.920Z,14.78
2023-04-23T09:04:52.910Z,14.89
2023-04-23T09:07:20.668Z,15.00
2023-04-23T09:09:47.298Z,14.97
2023-04-23T09:12:14.128Z,14.91
2023-04-23T09:14:40.974Z,14.92
2023-04-23T09:17:07.879Z,14.96
2023-04-23T09:19:36.552Z,15.00
2023-04-23T09:22:03.037Z,15.05
2023-04-23T09:24:30.506Z,15.12
2023-04-23T09:26:58.599Z,15.22
2023-04-23T09:29:25.322Z,15.34
2023-04-23T09:31:54.804Z,15.48
2023-04-23T09:34:25.342Z,15.63
2023-04-23T09:36:53.483Z,15.78
2023-04-23T09:39:23.329Z,16.05
2023-04-23T09:41:57.037Z,16.14
2023-04-23T09:44:24.287Z,16.04
2023-04-23T09:46:50.968Z,15.99
2023-04-23T09:49:17.809Z,15.96
2023-04-23T09:51:47.537Z,15.87
2023-04-23T09:54:26.112Z,15.83
2023-04-23T09:56:56.969Z,15.81
2023-04-23T09:59:46.077Z,15.78
2023-04-23T10:02:14.332Z,15.81
2023-04-23T10:04:41.900Z,15.83
2023-04-23T10:09:43.187Z,15.85
2023-04-23T10:12:27.679Z,15.88
2023-04-23T10:14:57.490Z,15.90
2023-04-23T10:17:25.827Z,15.91
2023-04-23T10:19:52.562Z,15.94
2023-04-23T10:22:21.724Z,15.98
2023-04-23T10:24:56.190Z,16.03
2023-04-23T10:27:40.256Z,16.09
2023-04-23T10:30:13.253Z,16.16
2023-04-23T10:32:41.373Z,16.28
2023-04-23T10:35:10.341Z,16.42
2023-04-23T10:37:38.267Z,16.54
2023-04-23T10:40:14.333Z,16.67
2023-04-23T10:42:43.058Z,16.69
2023-04-23T10:45:23.113Z,16.69
2023-04-23T10:47:52.800Z,16.70
2023-04-23T10:50:30.068Z,16.74
2023-04-23T10:52:58.154Z,16.85
2023-04-23T10:55:30.514Z,17.07
2023-04-23T10:58:08.430Z,17.24
2023-04-23T11:00:46.303Z,17.23
2023-04-23T11:03:44.419Z,17.17
2023-04-23T11:06:20.732Z,17.12
2023-04-23T11:08:54.553Z,17.04
2023-04-23T11:11:40.155Z,16.98
2023-04-23T11:14:16.160Z,17.07
2023-04-23T11:16:43.136Z,17.21
2023-04-23T11:19:12.595Z,17.26
2023-04-23T11:21:54.880Z,17.25
2023-04-23T11:24:32.224Z,17.19
2023-04-23T11:27:00.347Z,17.17
2023-04-23T11:29:28.907Z,17.19
2023-04-23T11:34:26.134Z,17.46
2023-04-23T11:36:54.827Z,17.80
2023-04-23T11:39:24.219Z,17.98
2023-04-23T11:41:52.304Z,18.09
2023-04-23T11:44:23.462Z,18.33
2023-04-23T11:46:50.514Z,18.45
2023-04-23T11:49:18.742Z,18.44
2023-04-23T11:51:46.553Z,18.38
2023-04-23T11:54:15.166Z,18.44
2023-04-23T11:56:42.367Z,18.54
2023-04-23T11:59:09.788Z,18.72
2023-04-23T12:01:44.955Z,18.94
2023-04-23T12:04:15.380Z,19.11
2023-04-23T12:06:44.245Z,19.36
2023-04-23T12:09:12.378Z,19.44
2023-04-23T12:11:43.341Z,19.49
2023-04-23T12:14:11.379Z,19.75
2023-04-23T12:16:40.120Z,20.09
2023-04-23T12:19:30.944Z,20.25
2023-04-23T12:22:00.666Z,20.31
2023-04-23T12:24:29.969Z,20.34
2023-04-23T12:27:00.460Z,20.44
2023-04-23T12:29:30.178Z,20.48
2023-04-23T12:31:59.614Z,20.49
2023-04-23T12:34:26.139Z,20.48
2023-04-23T12:36:55.415Z,20.42
2023-04-23T12:39:34.887Z,20.33
2023-04-23T12:42:05.700Z,20.18
2023-04-23T12:44:37.802Z,19.97
2023-04-23T12:47:09.278Z,19.89
2023-04-23T12:49:37.307Z,19.91
2023-04-23T12:52:05.271Z,20.04
2023-04-23T12:54:33.741Z,20.27
2023-04-23T12:57:03.958Z,20.62
2023-04-23T12:59:32.024Z,21.06
2023-04-23T13:02:03.044Z,21.34
2023-04-23T13:04:31.472Z,21.42
2023-04-23T13:06:57.971Z,21.46
2023-04-23T13:09:28.157Z,21.54
2023-04-23T13:11:55.238Z,21.61
2023-04-23T13:14:21.854Z,21.80
2023-04-23T13:16:49.266Z,22.02
2023-04-23T13:19:17.188Z,22.16
2023-04-23T13:21:44.787Z,22.05
2023-04-23T13:24:11.418Z,21.84
2023-04-23T13:26:38.153Z,21.52
2023-04-23T13:29:05.124Z,21.22
2023-04-23T13:31:32.007Z,20.90
2023-04-23T13:33:58.850Z,20.49
2023-04-23T13:36:25.834Z,20.11
2023-04-23T13:38:52.793Z,19.83
2023-04-23T13:41:19.242Z,19.54
2023-04-23T13:43:45.708Z,19.29
2023-04-23T13:46:12.648Z,19.12
2023-04-23T13:48:39.170Z,19.01
2023-04-23T13:51:11.409Z,18.89
2023-04-23T13:53:48.476Z,18.84
2023-04-23T13:56:15.293Z,18.87
2023-04-23T13:58:45.298Z,18.96
2023-04-23T14:01:13.479Z,19.07
2023-04-23T14:03:40.197Z,19.37
2023-04-23T14:06:07.125Z,19.92
2023-04-23T14:08:33.827Z,20.38
2023-04-23T14:11:00.841Z,20.71
2023-04-23T14:13:27.351Z,21.06
2023-04-23T14:15:54.042Z,21.35
2023-04-23T14:18:21.054Z,21.61
2023-04-23T14:20:47.957Z,21.98
2023-04-23T14:23:23.467Z,22.20
2023-04-23T14:26:04.065Z,22.31
2023-04-23T14:28:39.062Z,22.37
2023-04-23T14:31:05.836Z,22.12
2023-04-23T14:33:32.607Z,21.95
2023-04-23T14:35:59.304Z,21.94
2023-04-23T14:38:26.777Z,21.95
2023-04-23T14:40:53.798Z,22.02
2023-04-23T14:43:20.309Z,22.27
2023-04-23T14:45:47.040Z,22.49
2023-04-23T14:48:13.746Z,22.42
2023-04-23T14:50:40.522Z,22.29
2023-04-23T14:53:10.134Z,22.09
2023-04-23T14:55:37.066Z,21.84
2023-04-23T14:58:03.845Z,21.71
2023-04-23T15:00:30.574Z,21.55
2023-04-23T15:02:57.415Z,21.30
2023-04-23T15:05:24.253Z,21.09
2023-04-23T15:07:51.734Z,20.91
2023-04-23T15:10:18.952Z,20.80
2023-04-23T15:13:01.152Z,20.61
2023-04-23T15:15:44.523Z,20.40
2023-04-23T15:18:14.030Z,20.24
2023-04-23T15:20:41.372Z,20.13
2023-04-23T15:23:07.954Z,20.04
2023-04-23T15:25:35.750Z,19.95
2023-04-23T15:28:03.611Z,19.85
2023-04-23T15:30:30.292Z,19.69
2023-04-23T15:32:57.572Z,19.40
2023-04-23T15:35:25.651Z,19.11
2023-04-23T15:37:52.925Z,18.78
2023-04-23T15:40:19.942Z,18.52
2023-04-23T15:42:47.359Z,18.29
2023-04-23T15:45:14.006Z,18.14
2023-04-23T15:47:42.090Z,18.05
2023-04-23T15:50:10.137Z,17.99
2023-04-23T15:52:37.557Z,17.97
2023-04-23T15:55:07.625Z,18.00
2023-04-23T15:57:34.260Z,18.09
2023-04-23T16:00:01.386Z,18.35
2023-04-23T16:02:38.632Z,19.34
2023-04-23T16:05:05.565Z,20.98
2023-04-23T16:07:32.194Z,22.15
2023-04-23T16:09:58.768Z,22.62
2023-04-23T16:12:25.344Z,22.43
2023-04-23T16:14:52.461Z,22.15
2023-04-23T16:17:19.247Z,21.76
2023-04-23T16:19:46.466Z,21.42
2023-04-23T16:22:14.745Z,21.11
2023-04-23T16:24:41.388Z,20.83
2023-04-23T16:27:10.809Z,20.56
2023-04-23T16:29:38.142Z,20.35
2023-04-23T16:32:05.636Z,20.17
2023-04-23T16:34:32.600Z,20.00
2023-04-23T16:37:00.019Z,19.79
2023-04-23T16:39:27.080Z,19.60
2023-04-23T16:41:53.842Z,19.43
2023-04-23T16:44:20.377Z,19.27
2023-04-23T16:46:46.965Z,19.12
2023-04-23T16:49:13.759Z,19.01
2023-04-23T16:51:40.524Z,18.90
2023-04-23T16:54:07.129Z,18.80
2023-04-23T16:56:33.932Z,18.67
2023-04-23T16:59:00.770Z,18.55
2023-04-23T17:01:27.728Z,18.46
2023-04-23T17:03:54.769Z,18.39
2023-04-23T17:06:31.549Z,18.34
2023-04-23T17:09:00.438Z,18.29
2023-04-23T17:11:28.640Z,18.27
2023-04-23T17:13:56.198Z,18.27
2023-04-23T17:16:26.637Z,18.24
2023-04-23T17:18:54.334Z,18.19
2023-04-23T17:21:21.560Z,18.13
2023-04-23T17:23:48.217Z,18.04
2023-04-23T17:26:14.919Z,17.96
2023-04-23T17:28:41.847Z,17.88
2023-04-23T17:31:09.022Z,17.81
2023-04-23T17:33:36.374Z,17.74
2023-04-23T17:36:03.341Z,17.66
2023-04-23T17:38:29.959Z,17.58
2023-04-23T17:40:56.559Z,17.52
2023-04-23T17:43:23.061Z,17.46
2023-04-23T17:45:49.735Z,17.37
2023-04-23T17:48:16.838Z,17.30
2023-04-23T17:50:44.190Z,17.25
2023-04-23T17:53:10.865Z,17.19
2023-04-23T17:55:37.460Z,17.14
2023-04-23T17:58:07.160Z,17.09
2023-04-23T18:00:35.634Z,17.03
2023-04-23T18:03:02.906Z,16.95
2023-04-23T18:05:29.715Z,16.87
2023-04-23T18:07:56.512Z,16.80
2023-04-23T18:10:23.487Z,16.74
2023-04-23T18:12:50.247Z,16.67
2023-04-23T18:15:16.876Z,16.60
2023-04-23T18:17:43.490Z,16.52
2023-04-23T18:20:10.374Z,16.45
2023-04-23T18:22:38.283Z,16.34
2023-04-23T18:25:06.545Z,16.27
2023-04-23T18:27:34.247Z,16.15
2023-04-23T18:30:01.325Z,16.06
2023-04-23T18:32:34.334Z,15.95
2023-04-23T18:35:02.511Z,15.86
2023-04-23T18:37:37.736Z,15.75
2023-04-23T18:40:06.108Z,15.66
2023-04-23T18:42:34.593Z,15.55
2023-04-23T18:45:04.067Z,15.45
2023-04-23T18:47:37.040Z,15.38
2023-04-23T18:50:09.713Z,15.29
2023-04-23T18:52:36.307Z,15.21
2023-04-23T18:55:03.292Z,15.14
2023-04-23T18:57:30.086Z,15.06
2023-04-23T18:59:57.180Z,15.01
2023-04-23T19:02:34.416Z,14.95
2023-04-23T19:05:02.212Z,14.91
2023-04-23T19:07:28.761Z,14.87
2023-04-23T19:09:55.430Z,14.83
2023-04-23T19:12:22.044Z,14.80
2023-04-23T19:14:48.710Z,14.76
2023-04-23T19:17:17.983Z,14.70
2023-04-23T19:19:46.850Z,14.65
2023-04-23T19:22:14.618Z,14.60
2023-04-23T19:24:41.376Z,14.56
2023-04-23T19:27:09.239Z,14.52
2023-04-23T19:29:36.057Z,14.50
2023-04-23T19:32:02.878Z,14.47
2023-04-23T19:34:29.599Z,14.45
2023-04-23T19:36:56.261Z,14.44
2023-04-23T19:39:23.889Z,14.41
2023-04-23T19:41:50.525Z,14.38
2023-04-23T19:44:17.155Z,14.36
2023-04-23T19:46:45.811Z,14.33
2023-04-23T19:49:12.365Z,14.30
2023-04-23T19:51:42.160Z,14.27
2023-04-23T19:54:08.624Z,14.25
2023-04-23T19:56:35.201Z,14.25
2023-04-23T19:59:01.806Z,14.25
2023-04-23T20:01:30.877Z,14.26
2023-04-23T20:03:57.752Z,14.29
2023-04-23T20:06:24.700Z,14.31
2023-04-23T20:09:18.146Z,14.34
2023-04-23T20:11:46.078Z,14.38
2023-04-23T20:14:13.016Z,14.40
2023-04-23T20:16:40.923Z,14.42
2023-04-23T20:19:11.292Z,14.44
2023-04-23T20:21:39.270Z,14.46
2023-04-23T20:24:07.785Z,14.46
2023-04-23T20:26:35.520Z,14.47
2023-04-23T20:29:02.481Z,14.50
2023-04-23T20:31:29.387Z,14.50
2023-04-23T20:33:56.746Z,14.51
2023-04-23T20:36:28.745Z,14.52
2023-04-23T20:38:58.092Z,14.50
2023-04-23T20:41:26.469Z,14.49
2023-04-23T20:43:53.033Z,14.49
2023-04-23T20:46:19.689Z,14.47
2023-04-23T20:48:46.188Z,14.46
2023-04-23T20:51:13.066Z,14.45
2023-04-23T20:53:39.682Z,14.46
2023-04-23T20:56:06.381Z,14.46
2023-04-23T20:58:32.972Z,14.44
2023-04-23T21:01:00.149Z,14.42
2023-04-23T21:03:27.208Z,14.41
2023-04-23T21:05:54.041Z,14.41
2023-04-23T21:08:21.219Z,14.41
2023-04-23T21:10:47.861Z,14.41
2023-04-23T21:13:14.681Z,14.41
2023-04-23T21:15:41.652Z,14.41
2023-04-23T21:18:09.885Z,14.43
2023-04-23T21:20:36.498Z,14.44
2023-04-23T21:23:03.250Z,14.45
2023-04-23T21:25:29.787Z,14.46
2023-04-23T21:27:57.000Z,14.47
2023-04-23T21:30:41.513Z,14.47
2023-04-23T21:33:08.149Z,14.49
2023-04-23T21:35:34.611Z,14.49
2023-04-23T21:38:01.696Z,14.50
2023-04-23T21:40:28.361Z,14.51
2023-04-23T21:42:55.029Z,14.53
2023-04-23T21:45:21.483Z,14.55
2023-04-23T21:47:48.063Z,14.57
2023-04-23T21:50:17.402Z,14.60
2023-04-23T21:52:44.011Z,14.63
2023-04-23T21:55:12.422Z,14.64
2023-04-23T21:57:39.445Z,14.68
2023-04-23T22:00:07.748Z,14.70
2023-04-23T22:02:40.857Z,14.75
2023-04-23T22:05:09.250Z,14.76
2023-04-23T22:07:39.761Z,14.77
2023-04-23T22:10:08.070Z,14.74
2023-04-23T22:12:35.008Z,14.72
2023-04-23T22:15:01.830Z,14.70
2023-04-23T22:17:30.649Z,14.68
2023-04-23T22:19:57.195Z,14.66
2023-04-23T22:22:23.836Z,14.64
2023-04-23T22:24:50.476Z,14.63
2023-04-23T22:27:16.952Z,14.62
2023-04-23T22:29:43.683Z,14.63
2023-04-23T22:32:11.999Z,14.62
2023-04-23T22:34:38.662Z,14.63
2023-04-23T22:37:05.793Z,14.63
2023-04-23T22:39:32.292Z,14.63
2023-04-23T22:41:58.961Z,14.62
2023-04-23T22:44:25.453Z,14.60
2023-04-23T22:46:53.046Z,14.59
2023-04-23T22:49:19.632Z,14.59
2023-04-23T22:51:49.074Z,14.56
2023-04-23T22:54:16.838Z,14.54
2023-04-23T22:56:43.496Z,14.54
2023-04-23T22:59:13.201Z,14.54
2023-04-23T23:01:43.012Z,14.54
2023-04-23T23:04:09.927Z,14.53
2023-04-23T23:06:36.420Z,14.52
2023-04-23T23:09:03.066Z,14.51
2023-04-23T23:11:29.673Z,14.49
2023-04-23T23:13:56.322Z,14.47
2023-04-23T23:16:23.560Z,14.43
2023-04-23T23:18:50.194Z,14.42
2023-04-23T23:21:16.769Z,14.41
2023-04-23T23:23:45.347Z,14.38
2023-04-23T23:26:12.138Z,14.35
2023-04-23T23:28:39.150Z,14.32
2023-04-23T23:31:05.682Z,14.30
2023-04-23T23:33:32.438Z,14.26
2023-04-23T23:35:58.919Z,14.25
2023-04-23T23:38:25.711Z,14.24
2023-04-23T23:40:52.569Z,14.23
2023-04-23T23:43:19.112Z,14.22
2023-04-23T23:45:46.172Z,14.20
2023-04-23T23:48:13.044Z,14.19
2023-04-23T23:50:39.610Z,14.18
2023-04-23T23:53:06.138Z,14.17
2023-04-23T23:55:32.656Z,14.15
2023-04-23T23:58:01.077Z,14.14
